Raylah — MFYK2 — position and weather

sailwx.info

Track history (hours):
 
Tides and Currents Weather Stations Pressure Air Temp Water Temp Dewpoint Dewpoint Depression Visibility Wind Speed Wind Dir Waves Ship Positions

Raylah

Last reported at 2015-Jul-29 15:05 UTC. Time now 2015-Aug-02 08:18 UTC.
Position N 39°12' E 009°08'.

Length 13 m.

Type: Pleasure craft. MMSI: 235020483.

Date/timePositionNaut miles runAvg speedWind from/ knotsBaromVisibWave heightAir tempDewpointWater temp
2015-Jul-29 15:05N 39°12' E 009°08'1 1.4
2015-Jul-29 14:33N 39°11' E 009°07'7 6.6
2015-Jul-29 13:33N 39°09' E 009°15'195 6.7
2015-Jul-28 08:17N 38°34' E 013°21'5 7.0
2015-Jul-28 07:33N 38°33' E 013°28'97 6.3
2015-Jul-27 16:16N 38°19' E 015°30'4 5.1
2015-Jul-27 15:27N 38°18' E 015°35'4 4.9
2015-Jul-27 14:33N 38°16' E 015°40'8 7.6
2015-Jul-27 13:33N 38°10' E 015°33'6 6.0
2015-Jul-27 12:30N 38°04' E 015°30'  
Track history (hours):
 
Tides and Currents Weather Stations Pressure Air Temp Water Temp Dewpoint Dewpoint Depression Visibility Wind Speed Wind Dir Waves Ship Positions

Raylah

Last reported at 2015-Jul-29 15:05 UTC. Time now 2015-Aug-02 08:18 UTC.
Position N 39°12' E 009°08'.

Length 13 m.

Type: Pleasure craft. MMSI: 235020483.

Date/timePositionNaut miles runAvg speedWind from/ knotsBaromVisibWave heightAir tempDewpointWater temp
2015-Jul-29 15:05N 39°12' E 009°08'1 1.4
2015-Jul-29 14:33N 39°11' E 009°07'7 6.6
2015-Jul-29 13:33N 39°09' E 009°15'195 6.7
2015-Jul-28 08:17N 38°34' E 013°21'5 7.0
2015-Jul-28 07:33N 38°33' E 013°28'97 6.3
2015-Jul-27 16:16N 38°19' E 015°30'4 5.1
2015-Jul-27 15:27N 38°18' E 015°35'4 4.9
2015-Jul-27 14:33N 38°16' E 015°40'8 7.6
2015-Jul-27 13:33N 38°10' E 015°33'6 6.0
2015-Jul-27 12:30N 38°04' E 015°30'  

Dump ship's entire track history